Time;durP1;ratioP1;P1;durP2;ratioP2;P2;SDS_P1;SDS_P2;PMS_P1;PMS_P2;Temp;Humidity;BMP_temperature;BMP_pressure;BME280_temperature;BME280_humidity;BME280_pressure;Samples;Min_cycle;Max_cycle;Signal;HPM_P1;HPM_P2
2024/01/12 00:00:28;;;;;;;29.40;14.25;;;;;;;;;;5074016;28;20041;-84
2024/01/12 00:02:54;;;;;;;29.42;13.60;;;;;;;;;;5076581;28;20033;-83
2024/01/12 00:05:20;;;;;;;27.55;13.90;;;;;;;;;;5077928;28;20059;-83
2024/01/12 00:07:49;;;;;;;25.70;11.02;;;;;;;;;;5077603;28;20032;-83
2024/01/12 00:10:15;;;;;;;26.25;13.32;;;;;;;;;;5077764;28;20044;-83
2024/01/12 00:12:42;;;;;;;26.30;14.13;;;;;;;;;;5078152;28;20407;-83
2024/01/12 00:15:09;;;;;;;24.98;12.65;;;;;;;;;;5074226;28;20033;-83
2024/01/12 00:17:35;;;;;;;22.80;9.80;;;;;;;;;;5075513;28;20352;-83
2024/01/12 00:20:04;;;;;;;21.80;9.13;;;;;;;;;;5078925;28;20044;-82
2024/01/12 00:22:30;;;;;;;30.60;12.63;;;;;;;;;;5076481;28;20052;-82
2024/01/12 00:24:56;;;;;;;26.00;12.10;;;;;;;;;;5075345;28;20410;-82
2024/01/12 00:27:22;;;;;;;16.80;8.70;;;;;;;;;;5074142;28;20169;-82
2024/01/12 00:29:48;;;;;;;23.10;10.75;;;;;;;;;;5074700;28;20105;-82
2024/01/12 00:32:14;;;;;;;17.52;7.75;;;;;;;;;;5073803;28;20045;-82
2024/01/12 00:34:40;;;;;;;15.82;8.63;;;;;;;;;;5057376;28;20048;-82
2024/01/12 00:37:06;;;;;;;19.10;8.25;;;;;;;;;;5072103;28;20066;-82
2024/01/12 00:39:33;;;;;;;22.02;10.63;;;;;;;;;;5079734;28;20044;-83
2024/01/12 00:41:59;;;;;;;24.50;10.68;;;;;;;;;;5093585;28;20044;-83
2024/01/12 00:44:25;;;;;;;21.08;9.55;;;;;;;;;;5094132;28;20024;-82
2024/01/12 00:46:51;;;;;;;20.42;9.48;;;;;;;;;;5093543;28;20051;-82
2024/01/12 00:49:18;;;;;;;18.23;7.90;;;;;;;;;;5091548;28;20040;-82
2024/01/12 00:51:44;;;;;;;17.63;8.38;;;;;;;;;;5089831;28;20064;-82
2024/01/12 00:54:10;;;;;;;14.35;6.90;;;;;;;;;;5091700;28;20044;-82
2024/01/12 00:56:36;;;;;;;13.27;7.32;;;;;;;;;;5092983;28;20036;-82
2024/01/12 00:59:03;;;;;;;19.40;8.77;;;;;;;;;;5093817;28;20033;-82
2024/01/12 01:01:28;;;;;;;17.45;7.63;;;;;;;;;;5093059;28;20090;-82
2024/01/12 01:03:55;;;;;;;15.00;7.32;;;;;;;;;;5091780;28;20032;-83
2024/01/12 01:06:21;;;;;;;13.70;7.10;;;;;;;;;;5091414;28;20047;-82
2024/01/12 01:08:48;;;;;;;20.45;7.20;;;;;;;;;;5091657;28;20047;-82
2024/01/12 01:11:14;;;;;;;14.45;5.80;;;;;;;;;;5088355;28;20063;-82
2024/01/12 01:13:40;;;;;;;12.23;4.95;;;;;;;;;;5088466;28;20128;-82
2024/01/12 01:16:06;;;;;;;11.52;5.60;;;;;;;;;;5062456;28;20044;-82
2024/01/12 01:18:32;;;;;;;15.50;6.97;;;;;;;;;;5077764;28;20047;-82
2024/01/12 01:20:58;;;;;;;9.85;4.50;;;;;;;;;;5077270;28;20033;-82
2024/01/12 01:23:24;;;;;;;11.23;4.65;;;;;;;;;;5073193;28;20036;-82
2024/01/12 01:25:50;;;;;;;11.93;4.85;;;;;;;;;;5076136;28;20090;-82
2024/01/12 01:28:17;;;;;;;10.75;5.25;;;;;;;;;;5078736;28;20041;-82
2024/01/12 01:30:43;;;;;;;7.30;3.47;;;;;;;;;;5077022;28;20041;-82
2024/01/12 01:33:09;;;;;;;9.85;4.88;;;;;;;;;;5076547;28;20052;-82
2024/01/12 01:35:35;;;;;;;9.75;5.18;;;;;;;;;;5076598;28;20500;-82
2024/01/12 01:38:01;;;;;;;18.52;6.07;;;;;;;;;;5075123;28;20044;-82
2024/01/12 01:40:27;;;;;;;10.85;4.90;;;;;;;;;;5077377;28;20395;-83
2024/01/12 01:42:53;;;;;;;7.38;4.00;;;;;;;;;;5076065;28;20047;-83
2024/01/12 01:45:19;;;;;;;8.68;3.72;;;;;;;;;;5076171;28;20445;-82
2024/01/12 01:47:45;;;;;;;12.93;4.43;;;;;;;;;;5076258;28;20040;-82
2024/01/12 01:50:13;;;;;;;7.82;3.22;;;;;;;;;;5058240;28;20123;-82
2024/01/12 01:52:39;;;;;;;7.53;3.40;;;;;;;;;;5074850;28;20043;-82
2024/01/12 01:55:05;;;;;;;8.13;4.28;;;;;;;;;;5058699;28;20415;-82
2024/01/12 01:57:32;;;;;;;7.22;4.07;;;;;;;;;;5075173;28;20459;-82
2024/01/12 01:59:58;;;;;;;8.48;3.45;;;;;;;;;;5075584;28;20237;-83
2024/01/12 02:02:25;;;;;;;9.98;4.95;;;;;;;;;;5057972;28;20048;-83
2024/01/12 02:04:51;;;;;;;8.02;2.67;;;;;;;;;;5075875;28;20063;-83
2024/01/12 02:07:17;;;;;;;9.52;3.53;;;;;;;;;;5057498;28;20043;-83
2024/01/12 02:09:43;;;;;;;6.25;3.65;;;;;;;;;;5058220;28;20074;-83
2024/01/12 02:12:09;;;;;;;9.02;3.67;;;;;;;;;;5075457;28;20036;-83
2024/01/12 02:14:35;;;;;;;5.70;2.83;;;;;;;;;;5074108;28;20063;-82
2024/01/12 02:17:01;;;;;;;4.55;2.88;;;;;;;;;;5057933;28;20047;-82
2024/01/12 02:19:27;;;;;;;7.32;3.38;;;;;;;;;;5071145;28;20484;-82
2024/01/12 02:21:53;;;;;;;7.32;3.20;;;;;;;;;;5075417;28;20119;-83
2024/01/12 02:24:19;;;;;;;8.35;3.65;;;;;;;;;;5074692;28;20052;-83
2024/01/12 02:26:45;;;;;;;5.13;2.53;;;;;;;;;;5074559;28;20056;-83
2024/01/12 02:29:11;;;;;;;4.13;1.80;;;;;;;;;;5075449;28;20090;-83
2024/01/12 02:31:37;;;;;;;7.18;2.75;;;;;;;;;;5074192;28;20048;-83
2024/01/12 02:34:04;;;;;;;6.15;2.72;;;;;;;;;;5070354;28;20056;-83
2024/01/12 02:36:30;;;;;;;7.55;2.13;;;;;;;;;;5074389;28;20041;-83
2024/01/12 02:38:56;;;;;;;6.72;2.63;;;;;;;;;;5075980;28;20040;-83
2024/01/12 02:41:22;;;;;;;4.80;2.55;;;;;;;;;;5074068;28;20040;-83
2024/01/12 02:43:48;;;;;;;6.90;2.85;;;;;;;;;;5074006;28;20071;-83
2024/01/12 02:46:14;;;;;;;7.47;2.55;;;;;;;;;;5074039;28;20391;-83
2024/01/12 02:48:40;;;;;;;2.72;2.17;;;;;;;;;;5073141;28;20123;-83
2024/01/12 02:51:06;;;;;;;6.93;2.80;;;;;;;;;;5074198;28;20123;-83
2024/01/12 02:53:33;;;;;;;7.75;2.95;;;;;;;;;;5072900;28;20762;-83
2024/01/12 02:55:59;;;;;;;4.63;2.40;;;;;;;;;;5074966;28;20037;-83
2024/01/12 02:58:25;;;;;;;5.72;2.80;;;;;;;;;;5070028;28;20036;-83
2024/01/12 03:00:52;;;;;;;5.20;2.70;;;;;;;;;;5078288;28;20033;-83
2024/01/12 03:03:18;;;;;;;6.50;3.28;;;;;;;;;;5079260;28;20047;-83
2024/01/12 03:05:44;;;;;;;6.22;2.90;;;;;;;;;;5076727;28;20131;-83
2024/01/12 03:08:10;;;;;;;5.60;2.30;;;;;;;;;;5077212;28;20562;-83
2024/01/12 03:10:37;;;;;;;4.45;2.53;;;;;;;;;;5077123;28;20045;-83
2024/01/12 03:13:03;;;;;;;4.18;2.45;;;;;;;;;;5078340;28;20054;-83
2024/01/12 03:15:29;;;;;;;4.53;3.13;;;;;;;;;;5079150;28;20127;-83
2024/01/12 03:17:56;;;;;;;3.13;1.90;;;;;;;;;;5077883;28;20072;-83
2024/01/12 03:20:22;;;;;;;5.75;2.58;;;;;;;;;;5077565;28;20143;-83
2024/01/12 03:22:48;;;;;;;4.38;2.05;;;;;;;;;;5076835;28;20487;-83
2024/01/12 03:25:14;;;;;;;4.70;2.35;;;;;;;;;;5077082;28;20040;-83
2024/01/12 03:27:40;;;;;;;4.15;2.50;;;;;;;;;;5077800;28;20127;-82
2024/01/12 03:30:07;;;;;;;4.03;1.60;;;;;;;;;;5078198;28;20506;-83
2024/01/12 03:32:33;;;;;;;3.38;1.75;;;;;;;;;;5076342;28;20040;-83
2024/01/12 03:34:59;;;;;;;6.22;1.80;;;;;;;;;;5075569;28;20052;-83
2024/01/12 03:37:25;;;;;;;6.65;2.30;;;;;;;;;;5077273;28;20036;-83
2024/01/12 03:39:51;;;;;;;6.53;2.03;;;;;;;;;;5073330;28;20032;-83
2024/01/12 03:42:17;;;;;;;6.35;2.45;;;;;;;;;;5078889;28;20457;-83
2024/01/12 03:44:43;;;;;;;4.32;1.95;;;;;;;;;;5077457;28;20041;-83
2024/01/12 03:47:09;;;;;;;5.88;2.10;;;;;;;;;;5078440;28;20040;-83
2024/01/12 03:49:35;;;;;;;3.88;2.10;;;;;;;;;;5077144;28;20078;-83
2024/01/12 03:52:03;;;;;;;4.35;2.20;;;;;;;;;;5080622;28;20039;-83
2024/01/12 03:54:29;;;;;;;3.47;2.22;;;;;;;;;;5076166;28;20044;-83
2024/01/12 03:56:55;;;;;;;4.32;2.22;;;;;;;;;;5079484;28;20091;-83
2024/01/12 03:59:21;;;;;;;4.38;1.80;;;;;;;;;;5079921;28;20036;-83
2024/01/12 04:01:48;;;;;;;3.83;1.88;;;;;;;;;;5079985;28;20033;-83
2024/01/12 04:04:14;;;;;;;3.08;1.67;;;;;;;;;;5078182;28;20049;-83
2024/01/12 04:06:40;;;;;;;6.22;1.85;;;;;;;;;;5082488;28;20036;-83
2024/01/12 04:09:10;;;;;;;6.13;2.30;;;;;;;;;;5084776;28;20040;-83
2024/01/12 04:11:37;;;;;;;7.05;2.20;;;;;;;;;;5088226;28;20048;-83
2024/01/12 04:14:03;;;;;;;4.78;2.13;;;;;;;;;;5091418;28;20033;-83
2024/01/12 04:16:29;;;;;;;5.13;2.78;;;;;;;;;;5094065;28;20453;-83
2024/01/12 04:18:55;;;;;;;4.55;2.22;;;;;;;;;;5095349;28;20045;-83
2024/01/12 04:21:23;;;;;;;3.55;2.00;;;;;;;;;;5097139;28;20082;-83
2024/01/12 04:23:49;;;;;;;4.95;2.20;;;;;;;;;;5096541;28;20040;-83
2024/01/12 04:26:15;;;;;;;4.50;1.90;;;;;;;;;;5078892;28;20028;-83
2024/01/12 04:28:41;;;;;;;2.17;1.38;;;;;;;;;;5087082;28;20056;-83
2024/01/12 04:31:07;;;;;;;3.53;1.83;;;;;;;;;;5078959;28;20037;-83
2024/01/12 04:33:33;;;;;;;5.50;2.45;;;;;;;;;;5074431;28;20068;-83
2024/01/12 04:36:00;;;;;;;4.60;1.70;;;;;;;;;;5061710;28;20044;-83
2024/01/12 04:38:27;;;;;;;2.22;1.67;;;;;;;;;;5078308;28;20052;-83
2024/01/12 04:40:53;;;;;;;5.90;2.63;;;;;;;;;;5078581;28;20060;-83
2024/01/12 04:43:19;;;;;;;4.13;2.03;;;;;;;;;;5061701;28;20483;-83
2024/01/12 04:45:45;;;;;;;3.83;1.83;;;;;;;;;;5060073;28;20086;-83
2024/01/12 04:48:11;;;;;;;5.05;1.55;;;;;;;;;;5061636;28;20179;-83
2024/01/12 04:50:37;;;;;;;3.70;2.00;;;;;;;;;;5077661;28;20043;-83
2024/01/12 04:53:03;;;;;;;3.70;1.90;;;;;;;;;;5077401;28;20402;-83
2024/01/12 04:55:29;;;;;;;3.28;1.42;;;;;;;;;;5077444;28;20040;-83
2024/01/12 04:57:56;;;;;;;6.47;2.13;;;;;;;;;;5078547;28;20058;-83
2024/01/12 05:00:22;;;;;;;5.35;2.45;;;;;;;;;;5078433;28;20515;-83
2024/01/12 05:02:48;;;;;;;4.32;2.30;;;;;;;;;;5075977;28;20040;-83
2024/01/12 05:05:14;;;;;;;3.05;1.73;;;;;;;;;;5077641;28;20045;-83
2024/01/12 05:07:40;;;;;;;6.03;2.20;;;;;;;;;;5078031;28;20556;-83
2024/01/12 05:10:06;;;;;;;4.50;1.80;;;;;;;;;;5077053;28;20032;-83
2024/01/12 05:12:34;;;;;;;3.38;2.13;;;;;;;;;;5077361;28;20052;-83
2024/01/12 05:15:01;;;;;;;6.55;2.40;;;;;;;;;;5076382;28;20047;-83
2024/01/12 05:17:27;;;;;;;2.08;1.65;;;;;;;;;;5060764;28;20047;-83
2024/01/12 05:19:53;;;;;;;4.25;1.83;;;;;;;;;;5077751;28;20032;-83
2024/01/12 05:22:19;;;;;;;6.10;2.83;;;;;;;;;;5076249;28;20070;-83
2024/01/12 05:24:46;;;;;;;5.10;2.45;;;;;;;;;;5076630;28;20099;-83
2024/01/12 05:27:12;;;;;;;6.70;2.20;;;;;;;;;;5077413;28;20090;-83
2024/01/12 05:29:38;;;;;;;4.78;1.55;;;;;;;;;;5073820;28;20045;-83
2024/01/12 05:32:05;;;;;;;5.35;3.30;;;;;;;;;;5076017;28;22645;-83
2024/01/12 05:34:31;;;;;;;7.68;2.80;;;;;;;;;;5075351;28;20051;-83
2024/01/12 05:36:57;;;;;;;4.57;2.05;;;;;;;;;;5078043;28;20032;-83
2024/01/12 05:39:23;;;;;;;4.47;2.25;;;;;;;;;;5075776;28;20513;-83
2024/01/12 05:41:49;;;;;;;2.80;2.00;;;;;;;;;;5075768;28;20153;-84
2024/01/12 05:44:14;;;;;;;5.68;2.15;;;;;;;;;;5077074;28;20135;-84
2024/01/12 05:46:41;;;;;;;4.03;1.88;;;;;;;;;;5075381;28;20044;-84
2024/01/12 05:49:08;;;;;;;4.80;2.05;;;;;;;;;;5076623;28;20135;-84
2024/01/12 05:51:34;;;;;;;7.63;2.33;;;;;;;;;;5059283;28;20041;-84
2024/01/12 05:54:00;;;;;;;5.70;2.30;;;;;;;;;;5076090;28;20553;-84
2024/01/12 05:56:26;;;;;;;2.90;2.00;;;;;;;;;;5059548;28;20040;-84
2024/01/12 05:58:52;;;;;;;2.25;1.48;;;;;;;;;;5076527;28;20494;-84
2024/01/12 06:01:18;;;;;;;2.75;2.03;;;;;;;;;;5074716;28;20047;-84
2024/01/12 06:03:47;;;;;;;5.72;1.90;;;;;;;;;;5076689;28;20411;-83
2024/01/12 06:06:13;;;;;;;2.05;1.40;;;;;;;;;;5076558;28;20075;-83
2024/01/12 06:08:39;;;;;;;6.75;2.67;;;;;;;;;;5060269;28;20037;-83
2024/01/12 06:11:05;;;;;;;5.15;2.22;;;;;;;;;;5076891;28;20445;-83
2024/01/12 06:13:31;;;;;;;4.80;1.65;;;;;;;;;;5073850;28;20036;-83
2024/01/12 06:15:57;;;;;;;7.80;2.40;;;;;;;;;;5073053;28;20706;-84
2024/01/12 06:18:23;;;;;;;4.90;1.85;;;;;;;;;;5073880;28;20075;-84
2024/01/12 06:20:49;;;;;;;5.78;2.00;;;;;;;;;;5077605;28;20071;-83
2024/01/12 06:23:15;;;;;;;5.43;2.00;;;;;;;;;;5076598;28;20395;-83
2024/01/12 06:25:41;;;;;;;6.40;1.65;;;;;;;;;;5072633;28;20040;-83
2024/01/12 06:28:07;;;;;;;4.82;2.08;;;;;;;;;;5068554;28;20097;-83
2024/01/12 06:30:33;;;;;;;4.63;1.90;;;;;;;;;;5074767;28;20044;-83
2024/01/12 06:33:00;;;;;;;4.57;2.20;;;;;;;;;;5074489;28;20067;-82
2024/01/12 06:35:26;;;;;;;5.00;1.83;;;;;;;;;;5061542;28;20052;-83
2024/01/12 06:37:52;;;;;;;3.83;2.00;;;;;;;;;;5080082;28;20395;-83
2024/01/12 06:40:18;;;;;;;6.22;1.67;;;;;;;;;;5076893;28;20123;-82
2024/01/12 06:42:44;;;;;;;4.22;2.03;;;;;;;;;;5074971;28;20076;-82
2024/01/12 06:45:13;;;;;;;1.92;1.38;;;;;;;;;;5076614;28;20081;-82
2024/01/12 06:47:40;;;;;;;5.47;1.98;;;;;;;;;;5055046;28;20106;-83
2024/01/12 06:50:06;;;;;;;5.75;1.83;;;;;;;;;;5063083;28;20113;-83
2024/01/12 06:52:32;;;;;;;4.38;1.88;;;;;;;;;;5075302;28;20040;-82
2024/01/12 06:54:58;;;;;;;3.20;2.17;;;;;;;;;;5062614;28;20387;-82
2024/01/12 06:57:24;;;;;;;11.50;2.05;;;;;;;;;;5061744;28;20040;-82
2024/01/12 06:59:50;;;;;;;4.57;2.42;;;;;;;;;;5079122;28;20456;-82
2024/01/12 07:02:18;;;;;;;5.95;2.00;;;;;;;;;;5045035;28;20096;-81
2024/01/12 07:04:44;;;;;;;3.90;2.38;;;;;;;;;;5079213;28;20044;-80
2024/01/12 07:07:11;;;;;;;4.85;1.75;;;;;;;;;;5081139;28;20046;-80
2024/01/12 07:09:37;;;;;;;3.55;2.15;;;;;;;;;;5080084;28;20068;-81
2024/01/12 07:12:05;;;;;;;2.80;1.83;;;;;;;;;;5079243;28;20040;-81
2024/01/12 07:14:31;;;;;;;4.55;2.00;;;;;;;;;;5081937;28;20048;-80
2024/01/12 07:16:57;;;;;;;9.10;2.65;;;;;;;;;;5090305;28;20044;-81
2024/01/12 07:19:23;;;;;;;6.40;2.40;;;;;;;;;;5090508;28;20041;-81
2024/01/12 07:21:49;;;;;;;7.88;2.53;;;;;;;;;;5087311;28;20044;-80
2024/01/12 07:24:15;;;;;;;7.47;2.25;;;;;;;;;;5070089;28;20053;-81
2024/01/12 07:26:41;;;;;;;4.35;2.10;;;;;;;;;;5061763;28;20040;-80
2024/01/12 07:29:07;;;;;;;3.88;2.05;;;;;;;;;;5070437;28;20048;-81
2024/01/12 07:31:35;;;;;;;4.90;2.58;;;;;;;;;;5073101;28;20032;-82
2024/01/12 07:34:02;;;;;;;5.72;2.08;;;;;;;;;;5072256;28;20400;-82
2024/01/12 07:36:28;;;;;;;8.77;2.95;;;;;;;;;;5069218;28;20032;-83
2024/01/12 07:38:55;;;;;;;5.07;2.50;;;;;;;;;;5066759;28;20056;-82
2024/01/12 07:41:21;;;;;;;7.45;3.55;;;;;;;;;;5074047;28;20524;-82
2024/01/12 07:43:47;;;;;;;5.07;2.15;;;;;;;;;;5070419;28;20044;-82
2024/01/12 07:46:17;;;;;;;7.32;2.30;;;;;;;;;;5071029;28;20036;-82
2024/01/12 07:48:43;;;;;;;5.43;2.67;;;;;;;;;;5070122;28;20036;-83
2024/01/12 07:51:09;;;;;;;7.40;2.78;;;;;;;;;;5073861;28;20157;-83
2024/01/12 07:53:35;;;;;;;6.43;3.13;;;;;;;;;;5076886;28;20134;-83
2024/01/12 07:56:01;;;;;;;6.53;2.70;;;;;;;;;;5079894;28;20429;-83
2024/01/12 07:58:27;;;;;;;4.40;1.98;;;;;;;;;;5090827;28;20064;-83
2024/01/12 08:00:53;;;;;;;4.32;2.55;;;;;;;;;;5091121;28;20016;-83
2024/01/12 08:03:19;;;;;;;4.40;2.35;;;;;;;;;;5062860;28;20036;-83
2024/01/12 08:05:45;;;;;;;4.18;2.45;;;;;;;;;;5077746;28;20079;-82
2024/01/12 08:08:11;;;;;;;5.15;2.88;;;;;;;;;;5075339;28;20052;-84
2024/01/12 08:10:37;;;;;;;6.65;2.58;;;;;;;;;;5058283;28;20044;-85
2024/01/12 08:13:04;;;;;;;6.80;3.20;;;;;;;;;;5070808;28;20051;-84
2024/01/12 08:15:30;;;;;;;5.43;2.65;;;;;;;;;;5070340;28;20040;-84
2024/01/12 08:17:56;;;;;;;4.10;2.35;;;;;;;;;;5074787;28;20499;-84
2024/01/12 08:20:22;;;;;;;3.83;2.40;;;;;;;;;;5069845;28;20123;-83
2024/01/12 08:22:48;;;;;;;6.05;3.03;;;;;;;;;;5054410;28;20043;-83
2024/01/12 08:25:14;;;;;;;11.13;3.83;;;;;;;;;;5074317;28;20407;-83
2024/01/12 08:27:40;;;;;;;7.65;3.13;;;;;;;;;;5073849;28;20487;-82
2024/01/12 08:30:10;;;;;;;3.88;2.60;;;;;;;;;;5067648;28;20040;-82
2024/01/12 08:32:36;;;;;;;10.90;3.50;;;;;;;;;;5074214;28;20135;-84
2024/01/12 08:35:02;;;;;;;5.43;2.17;;;;;;;;;;5054789;28;20510;-85
2024/01/12 08:37:28;;;;;;;4.70;2.95;;;;;;;;;;5073256;28;20033;-85
2024/01/12 08:39:54;;;;;;;6.03;2.75;;;;;;;;;;5071109;28;20044;-87
2024/01/12 08:42:20;;;;;;;6.05;2.63;;;;;;;;;;5070494;28;20040;-86
2024/01/12 08:44:45;;;;;;;9.52;3.13;;;;;;;;;;5072364;28;20032;-84
2024/01/12 08:47:12;;;;;;;6.13;3.58;;;;;;;;;;5074436;28;20407;-85
2024/01/12 08:49:38;;;;;;;3.30;2.10;;;;;;;;;;5056832;28;20037;-83
2024/01/12 08:52:04;;;;;;;4.70;2.50;;;;;;;;;;5075065;28;20495;-85
2024/01/12 08:54:30;;;;;;;6.82;2.38;;;;;;;;;;5060907;28;20036;-84
2024/01/12 08:56:56;;;;;;;6.20;3.17;;;;;;;;;;5075156;28;20137;-85
2024/01/12 08:59:22;;;;;;;4.82;2.50;;;;;;;;;;5072164;28;20064;-85
2024/01/12 09:01:48;;;;;;;3.58;2.63;;;;;;;;;;5069696;28;20044;-87
2024/01/12 09:04:14;;;;;;;9.13;3.13;;;;;;;;;;5055476;28;20028;-83
2024/01/12 09:06:40;;;;;;;5.97;2.78;;;;;;;;;;5074169;28;20521;-83
2024/01/12 09:09:07;;;;;;;4.90;2.30;;;;;;;;;;5057355;28;20135;-83
2024/01/12 09:11:33;;;;;;;6.22;2.72;;;;;;;;;;5063593;28;20408;-83
2024/01/12 09:13:59;;;;;;;5.43;3.00;;;;;;;;;;5074538;28;20052;-83
2024/01/12 09:16:25;;;;;;;4.05;2.30;;;;;;;;;;5074393;28;20532;-82
2024/01/12 09:18:51;;;;;;;6.55;2.47;;;;;;;;;;5076825;28;20108;-82
2024/01/12 09:21:17;;;;;;;10.52;2.83;;;;;;;;;;5078407;28;20037;-82
2024/01/12 09:23:43;;;;;;;7.43;2.78;;;;;;;;;;5077468;28;20376;-82
2024/01/12 09:26:10;;;;;;;8.00;2.40;;;;;;;;;;5076649;28;20082;-81
2024/01/12 09:28:37;;;;;;;5.75;2.40;;;;;;;;;;5078117;28;20096;-81
2024/01/12 09:31:03;;;;;;;7.72;2.65;;;;;;;;;;5077912;28;20119;-81
2024/01/12 09:33:30;;;;;;;6.45;2.78;;;;;;;;;;5074669;28;20052;-81
2024/01/12 09:35:56;;;;;;;6.00;2.60;;;;;;;;;;5075574;28;20036;-81
2024/01/12 09:38:23;;;;;;;4.70;2.80;;;;;;;;;;5075904;28;20075;-81
2024/01/12 09:40:49;;;;;;;4.10;2.17;;;;;;;;;;5075624;28;20052;-81
2024/01/12 09:43:16;;;;;;;7.00;2.65;;;;;;;;;;5078094;28;20388;-81
2024/01/12 09:45:44;;;;;;;9.27;2.47;;;;;;;;;;5077929;28;20079;-84
2024/01/12 09:48:10;;;;;;;5.95;2.60;;;;;;;;;;5077728;28;20032;-83
2024/01/12 09:50:36;;;;;;;9.43;4.00;;;;;;;;;;5077361;28;20037;-82
2024/01/12 09:53:02;;;;;;;8.13;2.72;;;;;;;;;;5078159;28;20037;-81
2024/01/12 09:55:28;;;;;;;6.40;2.88;;;;;;;;;;5077471;28;20673;-81
2024/01/12 09:57:55;;;;;;;8.00;3.00;;;;;;;;;;5076327;28;20036;-83
2024/01/12 10:00:25;;;;;;;10.00;3.15;;;;;;;;;;5072471;28;20042;-84
2024/01/12 10:02:51;;;;;;;11.32;3.25;;;;;;;;;;5069207;28;20036;-84
2024/01/12 10:05:17;;;;;;;8.73;2.97;;;;;;;;;;5071041;28;20047;-84
2024/01/12 10:07:43;;;;;;;3.97;2.40;;;;;;;;;;5069758;28;20044;-83
2024/01/12 10:10:09;;;;;;;8.52;3.45;;;;;;;;;;5084539;28;20096;-83
2024/01/12 10:12:35;;;;;;;7.97;2.72;;;;;;;;;;5085746;28;20044;-83
2024/01/12 10:15:02;;;;;;;6.68;2.55;;;;;;;;;;5088023;28;20119;-83
2024/01/12 10:17:28;;;;;;;4.55;2.55;;;;;;;;;;5089379;28;20040;-82
2024/01/12 10:19:55;;;;;;;6.00;2.33;;;;;;;;;;5081708;28;20037;-83
2024/01/12 10:22:21;;;;;;;9.48;2.70;;;;;;;;;;5073730;28;20045;-84
2024/01/12 10:24:47;;;;;;;8.77;2.47;;;;;;;;;;5071147;28;20073;-84
2024/01/12 10:27:13;;;;;;;9.27;3.10;;;;;;;;;;5065882;28;20073;-83
2024/01/12 10:29:39;;;;;;;8.10;2.53;;;;;;;;;;5064964;28;20606;-83
2024/01/12 10:32:07;;;;;;;6.70;2.38;;;;;;;;;;5054211;28;20127;-84
2024/01/12 10:34:33;;;;;;;5.60;1.95;;;;;;;;;;5068868;28;20063;-84
2024/01/12 10:37:00;;;;;;;5.55;2.33;;;;;;;;;;5053608;28;20033;-83
2024/01/12 10:39:27;;;;;;;10.15;2.90;;;;;;;;;;5070039;28;20095;-83
2024/01/12 10:41:53;;;;;;;7.90;2.50;;;;;;;;;;5069939;28;20068;-84
2024/01/12 10:44:22;;;;;;;5.05;2.10;;;;;;;;;;5070733;28;20040;-84
2024/01/12 10:46:50;;;;;;;4.65;2.30;;;;;;;;;;5052983;28;20204;-84
2024/01/12 10:49:20;;;;;;;3.90;2.20;;;;;;;;;;5070696;28;20406;-84
2024/01/12 10:52:06;;;;;;;7.50;2.50;;;;;;;;;;5068277;28;20053;-84
2024/01/12 10:54:49;;;;;;;4.22;1.88;;;;;;;;;;5046205;28;20450;-84
2024/01/12 10:57:16;;;;;;;4.35;2.05;;;;;;;;;;5048270;28;20098;-84
2024/01/12 10:59:44;;;;;;;4.50;1.70;;;;;;;;;;5069662;28;20040;-84
2024/01/12 11:02:14;;;;;;;5.32;2.05;;;;;;;;;;5069865;28;20043;-84
2024/01/12 11:04:41;;;;;;;4.00;2.08;;;;;;;;;;5071162;28;20118;-84
2024/01/12 11:07:08;;;;;;;7.30;2.00;;;;;;;;;;5069925;28;20044;-84
2024/01/12 11:09:35;;;;;;;6.63;1.63;;;;;;;;;;5064274;28;20036;-84
2024/01/12 11:12:01;;;;;;;7.63;1.63;;;;;;;;;;5071572;28;20052;-84
2024/01/12 11:14:27;;;;;;;5.80;2.38;;;;;;;;;;5071127;28;21351;-84
2024/01/12 11:16:54;;;;;;;8.35;1.52;;;;;;;;;;5067998;28;20037;-84
2024/01/12 11:19:25;;;;;;;5.50;1.40;;;;;;;;;;5071835;28;20048;-83
2024/01/12 11:22:01;;;;;;;6.55;1.90;;;;;;;;;;5078393;28;20046;-83
2024/01/12 11:24:27;;;;;;;7.32;1.90;;;;;;;;;;5080641;28;20052;-84
2024/01/12 11:26:53;;;;;;;11.13;2.28;;;;;;;;;;5087398;28;20036;-83
2024/01/12 11:29:19;;;;;;;1.83;0.90;;;;;;;;;;5074084;28;20035;-85
2024/01/12 11:31:49;;;;;;;4.35;1.13;;;;;;;;;;5074224;28;20037;-84
2024/01/12 11:34:16;;;;;;;9.63;2.35;;;;;;;;;;5074959;28;20045;-83
2024/01/12 11:36:42;;;;;;;14.70;1.60;;;;;;;;;;5076647;28;20037;-83
2024/01/12 11:39:12;;;;;;;5.90;1.80;;;;;;;;;;5063015;28;20505;-84
2024/01/12 11:41:45;;;;;;;5.05;1.63;;;;;;;;;;5073664;28;20036;-83
2024/01/12 11:44:11;;;;;;;5.60;2.42;;;;;;;;;;5061175;28;20068;-83
2024/01/12 11:46:37;;;;;;;4.45;1.20;;;;;;;;;;5072629;28;20044;-82
2024/01/12 11:49:08;;;;;;;4.07;1.15;;;;;;;;;;5066157;28;20064;-83
2024/01/12 11:51:34;;;;;;;3.63;1.50;;;;;;;;;;5079581;28;20048;-83
2024/01/12 11:54:00;;;;;;;8.02;1.73;;;;;;;;;;5063920;28;20210;-82
2024/01/12 11:56:26;;;;;;;8.40;1.67;;;;;;;;;;5080286;28;20123;-82
2024/01/12 11:58:54;;;;;;;7.30;2.05;;;;;;;;;;5077109;28;20033;-83
2024/01/12 12:01:20;;;;;;;7.28;2.10;;;;;;;;;;5080657;28;20054;-83
2024/01/12 12:03:49;;;;;;;8.45;1.67;;;;;;;;;;5078565;28;20471;-82
2024/01/12 12:06:15;;;;;;;4.32;2.20;;;;;;;;;;5085126;28;20032;-83
2024/01/12 12:08:59;;;;;;;3.45;0.80;;;;;;;;;;5077729;28;20048;-83
2024/01/12 12:11:26;;;;;;;6.35;1.35;;;;;;;;;;5082189;28;20040;-84
2024/01/12 12:13:54;;;;;;;3.55;1.70;;;;;;;;;;5061079;28;20123;-83
2024/01/12 12:16:20;;;;;;;6.90;1.33;;;;;;;;;;5070130;28;20111;-82
2024/01/12 12:18:46;;;;;;;10.25;2.17;;;;;;;;;;5069644;28;20046;-84
2024/01/12 12:21:14;;;;;;;6.80;2.45;;;;;;;;;;5076631;28;20032;-83
2024/01/12 12:23:42;;;;;;;4.90;1.15;;;;;;;;;;5071297;28;22304;-84
2024/01/12 12:26:14;;;;;;;8.17;1.83;;;;;;;;;;5225302;22;20024;31
2024/01/12 12:28:40;;;;;;;7.70;2.40;;;;;;;;;;4947039;29;20051;-81
2024/01/12 12:31:07;;;;;;;6.32;1.45;;;;;;;;;;4972229;28;20047;-83
2024/01/12 12:33:33;;;;;;;6.18;2.00;;;;;;;;;;4953202;28;20055;-83
2024/01/12 12:36:07;;;;;;;8.38;2.33;;;;;;;;;;4954775;29;20048;-82
2024/01/12 12:38:33;;;;;;;6.63;1.13;;;;;;;;;;4958426;29;20043;-83
2024/01/12 12:41:00;;;;;;;15.63;2.17;;;;;;;;;;4948363;29;20103;-82
2024/01/12 12:43:26;;;;;;;6.80;1.88;;;;;;;;;;4952122;29;20044;-84
2024/01/12 12:45:52;;;;;;;5.18;1.48;;;;;;;;;;4942970;29;20094;-85
2024/01/12 12:48:18;;;;;;;4.97;1.58;;;;;;;;;;4943928;29;20043;-83
2024/01/12 12:50:44;;;;;;;8.70;1.83;;;;;;;;;;4980816;28;20067;-82
2024/01/12 12:53:11;;;;;;;6.32;1.50;;;;;;;;;;4969777;29;20039;-83
2024/01/12 12:55:37;;;;;;;8.50;1.60;;;;;;;;;;4968665;29;20051;-83
2024/01/12 12:58:05;;;;;;;7.00;1.33;;;;;;;;;;4975693;28;20058;-84
2024/01/12 13:00:31;;;;;;;4.03;1.20;;;;;;;;;;4971295;29;20074;-84
2024/01/12 13:02:57;;;;;;;12.25;2.17;;;;;;;;;;4944562;28;20043;-85
2024/01/12 13:05:24;;;;;;;5.45;1.60;;;;;;;;;;4954665;28;20086;-86
2024/01/12 13:07:51;;;;;;;2.03;1.05;;;;;;;;;;4946184;29;20118;-83
2024/01/12 13:10:17;;;;;;;7.45;1.30;;;;;;;;;;4957147;28;20043;-81
2024/01/12 13:12:43;;;;;;;11.93;2.17;;;;;;;;;;4953986;29;20043;-82
2024/01/12 13:15:09;;;;;;;3.35;1.65;;;;;;;;;;4933514;29;20039;-83
2024/01/12 13:17:35;;;;;;;6.47;1.50;;;;;;;;;;4947727;28;20070;-83
2024/01/12 13:20:03;;;;;;;4.10;1.60;;;;;;;;;;4964471;28;20039;-83
2024/01/12 13:22:29;;;;;;;5.95;1.35;;;;;;;;;;4944134;28;20043;-83
2024/01/12 13:24:59;;;;;;;5.72;1.70;;;;;;;;;;4961744;28;20125;-83
2024/01/12 13:27:25;;;;;;;5.95;1.83;;;;;;;;;;4949512;28;20069;-83
2024/01/12 13:29:51;;;;;;;4.63;1.63;;;;;;;;;;4951080;28;20405;-83
2024/01/12 13:32:17;;;;;;;3.83;1.38;;;;;;;;;;4950103;29;20050;-83
2024/01/12 13:34:43;;;;;;;4.45;0.93;;;;;;;;;;4947716;28;20043;-83
2024/01/12 13:37:09;;;;;;;5.45;1.38;;;;;;;;;;4941123;29;20035;-83
2024/01/12 13:39:35;;;;;;;5.55;1.52;;;;;;;;;;4926200;29;20455;-83
2024/01/12 13:42:01;;;;;;;9.10;2.05;;;;;;;;;;4946662;29;20491;-83
2024/01/12 13:44:30;;;;;;;10.18;2.42;;;;;;;;;;4930004;29;20538;-83
2024/01/12 13:46:56;;;;;;;11.32;3.58;;;;;;;;;;4929154;29;20524;-83
2024/01/12 13:49:23;;;;;;;10.15;2.80;;;;;;;;;;4945302;29;20075;-83
2024/01/12 13:51:49;;;;;;;8.48;2.72;;;;;;;;;;4943112;29;20062;-83
2024/01/12 13:54:16;;;;;;;5.20;2.45;;;;;;;;;;4942018;28;20439;-83
2024/01/12 13:56:42;;;;;;;3.90;1.50;;;;;;;;;;4941461;28;20043;-83
2024/01/12 13:59:08;;;;;;;5.28;2.53;;;;;;;;;;4926680;29;20032;-84
2024/01/12 14:01:34;;;;;;;6.88;1.98;;;;;;;;;;4948155;29;20146;-83
2024/01/12 14:04:01;;;;;;;9.25;2.30;;;;;;;;;;4945916;29;20112;-83
2024/01/12 14:06:30;;;;;;;9.55;3.05;;;;;;;;;;4944620;29;20071;-83
2024/01/12 14:08:56;;;;;;;6.90;2.22;;;;;;;;;;4929639;29;20035;-83
2024/01/12 14:11:22;;;;;;;7.03;1.20;;;;;;;;;;4952429;28;20047;-83
2024/01/12 14:13:48;;;;;;;4.32;2.05;;;;;;;;;;4947699;29;20039;-83
2024/01/12 14:16:15;;;;;;;2.78;0.65;;;;;;;;;;4947640;29;20043;-84
2024/01/12 14:18:41;;;;;;;6.75;2.10;;;;;;;;;;4925991;29;20036;-84
2024/01/12 14:21:07;;;;;;;5.55;1.90;;;;;;;;;;4949130;29;20075;-84
2024/01/12 14:23:33;;;;;;;8.93;2.83;;;;;;;;;;4960741;28;20046;-84
2024/01/12 14:25:59;;;;;;;8.48;2.90;;;;;;;;;;4952905;29;20407;-84
2024/01/12 14:28:25;;;;;;;8.93;2.53;;;;;;;;;;4957686;28;20094;-84
2024/01/12 14:30:51;;;;;;;8.43;2.42;;;;;;;;;;4943338;29;20095;-84
2024/01/12 14:33:17;;;;;;;6.90;2.17;;;;;;;;;;4947573;29;20040;-84
2024/01/12 14:35:43;;;;;;;5.53;2.42;;;;;;;;;;4944455;29;20063;-83